sensor_id;sensor_type;location;lat;lon;timestamp;pressure;altitude;pressure_sealevel;temperature;humidity
75219;BME280;63801;49.414;19.474;2023-03-26T00:00:25;92937.69;;;5.70;71.08
75219;BME280;63801;49.414;19.474;2023-03-26T00:02:25;92938.03;;;5.68;71.29
75219;BME280;63801;49.414;19.474;2023-03-26T00:04:28;92942.25;;;5.69;70.97
75219;BME280;63801;49.414;19.474;2023-03-26T00:06:31;92937.25;;;5.68;71.02
75219;BME280;63801;49.414;19.474;2023-03-26T00:08:40;92929.13;;;5.64;71.44
75219;BME280;63801;49.414;19.474;2023-03-26T00:10:41;92942.16;;;5.66;71.38
75219;BME280;63801;49.414;19.474;2023-03-26T00:12:42;92942.16;;;5.66;71.21
75219;BME280;63801;49.414;19.474;2023-03-26T00:14:42;92931.69;;;5.61;71.39
75219;BME280;63801;49.414;19.474;2023-03-26T00:16:44;92945.16;;;5.64;71.44
75219;BME280;63801;49.414;19.474;2023-03-26T00:18:45;92933.59;;;5.60;71.32
75219;BME280;63801;49.414;19.474;2023-03-26T00:20:46;92942.94;;;5.66;71.37
75219;BME280;63801;49.414;19.474;2023-03-26T00:22:46;92932.91;;;5.63;71.31
75219;BME280;63801;49.414;19.474;2023-03-26T00:24:47;92934.94;;;5.66;71.59
75219;BME280;63801;49.414;19.474;2023-03-26T00:26:49;92935.69;;;5.67;71.19
75219;BME280;63801;49.414;19.474;2023-03-26T00:28:52;92930.69;;;5.65;71.39
75219;BME280;63801;49.414;19.474;2023-03-26T00:30:58;92923.91;;;5.56;71.43
75219;BME280;63801;49.414;19.474;2023-03-26T00:32:59;92921.31;;;5.59;71.44
75219;BME280;63801;49.414;19.474;2023-03-26T00:34:59;92925.09;;;5.58;71.35
75219;BME280;63801;49.414;19.474;2023-03-26T00:37:01;92929.25;;;5.56;71.03
75219;BME280;63801;49.414;19.474;2023-03-26T00:39:03;92930.72;;;5.53;71.61
75219;BME280;63801;49.414;19.474;2023-03-26T00:41:06;92939.75;;;5.49;71.74
75219;BME280;63801;49.414;19.474;2023-03-26T00:43:07;92931.94;;;5.43;71.95
75219;BME280;63801;49.414;19.474;2023-03-26T00:45:17;92929.16;;;5.40;71.78
75219;BME280;63801;49.414;19.474;2023-03-26T00:47:20;92925.16;;;5.34;71.98
75219;BME280;63801;49.414;19.474;2023-03-26T00:49:21;92929.41;;;5.35;72.38
75219;BME280;63801;49.414;19.474;2023-03-26T00:51:26;92928.94;;;5.33;72.02
75219;BME280;63801;49.414;19.474;2023-03-26T00:53:27;92911.34;;;5.20;72.09
75219;BME280;63801;49.414;19.474;2023-03-26T00:55:27;92923.38;;;5.26;72.15
75219;BME280;63801;49.414;19.474;2023-03-26T00:57:28;92923.38;;;5.26;72.28
75219;BME280;63801;49.414;19.474;2023-03-26T00:59:29;92921.16;;;5.28;71.86
75219;BME280;63801;49.414;19.474;2023-03-26T01:01:29;92918.03;;;5.26;72.21
75219;BME280;63801;49.414;19.474;2023-03-26T01:03:32;92919.69;;;5.18;72.27
75219;BME280;63801;49.414;19.474;2023-03-26T01:07:34;92923.72;;;5.24;72.55
75219;BME280;63801;49.414;19.474;2023-03-26T01:09:42;92918.38;;;5.24;72.63
75219;BME280;63801;49.414;19.474;2023-03-26T01:11:44;92924.03;;;5.23;72.70
75219;BME280;63801;49.414;19.474;2023-03-26T01:13:53;92917.91;;;5.22;72.72
75219;BME280;63801;49.414;19.474;2023-03-26T01:15:54;92919.16;;;5.25;72.61
75219;BME280;63801;49.414;19.474;2023-03-26T01:17:56;92909.66;;;5.27;72.74
75219;BME280;63801;49.414;19.474;2023-03-26T01:20:08;92918.16;;;5.29;72.45
75219;BME280;63801;49.414;19.474;2023-03-26T01:22:18;92912.03;;;5.29;72.37
75219;BME280;63801;49.414;19.474;2023-03-26T01:24:18;92910.13;;;5.29;72.88
75219;BME280;63801;49.414;19.474;2023-03-26T01:26:57;92903.78;;;5.34;72.64
75219;BME280;63801;49.414;19.474;2023-03-26T01:29:03;92897.66;;;5.33;73.05
75219;BME280;63801;49.414;19.474;2023-03-26T01:31:29;92904.56;;;5.34;72.91
75219;BME280;63801;49.414;19.474;2023-03-26T01:33:54;92890.41;;;5.34;72.86
75219;BME280;63801;49.414;19.474;2023-03-26T01:36:04;92901.44;;;5.32;73.27
75219;BME280;63801;49.414;19.474;2023-03-26T01:38:09;92908.66;;;5.32;73.38
75219;BME280;63801;49.414;19.474;2023-03-26T01:40:34;92896.88;;;5.33;73.31
75219;BME280;63801;49.414;19.474;2023-03-26T01:42:53;92904.56;;;5.34;73.42
75219;BME280;63801;49.414;19.474;2023-03-26T01:45:08;92904.22;;;5.36;73.47
75219;BME280;63801;49.414;19.474;2023-03-26T01:47:11;92891.75;;;5.28;73.15
75219;BME280;63801;49.414;19.474;2023-03-26T01:49:12;92900.78;;;5.35;73.27
75219;BME280;63801;49.414;19.474;2023-03-26T01:51:24;92900.00;;;5.35;73.50
75219;BME280;63801;49.414;19.474;2023-03-26T01:53:24;92897.97;;;5.32;73.23
75219;BME280;63801;49.414;19.474;2023-03-26T01:55:38;92902.22;;;5.33;73.80
75219;BME280;63801;49.414;19.474;2023-03-26T02:07:07;92899.56;;;5.21;73.71
75219;BME280;63801;49.414;19.474;2023-03-26T02:09:13;92896.44;;;5.19;73.91
75219;BME280;63801;49.414;19.474;2023-03-26T02:11:16;92900.56;;;5.16;73.80
75219;BME280;63801;49.414;19.474;2023-03-26T02:13:17;92904.03;;;5.17;73.92
75219;BME280;63801;49.414;19.474;2023-03-26T02:15:18;92897.78;;;5.13;73.91
75219;BME280;63801;49.414;19.474;2023-03-26T02:17:18;92897.13;;;5.16;73.90
75219;BME280;63801;49.414;19.474;2023-03-26T02:19:23;92895.13;;;5.13;74.01
75219;BME280;63801;49.414;19.474;2023-03-26T02:21:25;92898.00;;;5.20;73.91
75219;BME280;63801;49.414;19.474;2023-03-26T02:23:26;92898.78;;;5.20;74.03
75219;BME280;63801;49.414;19.474;2023-03-26T02:25:28;92890.44;;;5.22;73.98
75219;BME280;63801;49.414;19.474;2023-03-26T02:27:29;92896.22;;;5.24;73.87
75219;BME280;63801;49.414;19.474;2023-03-26T02:29:29;92886.63;;;5.23;73.97
75219;BME280;63801;49.414;19.474;2023-03-26T02:31:30;92892.75;;;5.23;73.96
75219;BME280;63801;49.414;19.474;2023-03-26T02:33:31;92896.88;;;5.21;73.83
75219;BME280;63801;49.414;19.474;2023-03-26T02:35:31;92896.09;;;5.20;73.84
75219;BME280;63801;49.414;19.474;2023-03-26T02:37:32;92892.97;;;5.18;73.99
75219;BME280;63801;49.414;19.474;2023-03-26T02:39:35;92901.44;;;5.20;73.77
75219;BME280;63801;49.414;19.474;2023-03-26T02:41:38;92905.69;;;5.21;73.82
75219;BME280;63801;49.414;19.474;2023-03-26T02:43:39;92907.56;;;5.21;74.23
75219;BME280;63801;49.414;19.474;2023-03-26T02:45:39;92909.56;;;5.24;74.16
75219;BME280;63801;49.414;19.474;2023-03-26T02:47:40;92914.81;;;5.20;74.11
75219;BME280;63801;49.414;19.474;2023-03-26T02:49:41;92909.25;;;5.25;74.02
75219;BME280;63801;49.414;19.474;2023-03-26T02:51:41;92907.34;;;5.26;74.11
75219;BME280;63801;49.414;19.474;2023-03-26T02:53:42;92909.34;;;5.29;73.81
75219;BME280;63801;49.414;19.474;2023-03-26T02:55:42;92905.13;;;5.28;73.97
75219;BME280;63801;49.414;19.474;2023-03-26T02:57:42;92908.56;;;5.28;73.91
75219;BME280;63801;49.414;19.474;2023-03-26T02:59:43;92909.66;;;5.27;74.18
75219;BME280;63801;49.414;19.474;2023-03-26T03:01:45;92903.13;;;5.25;74.00
75219;BME280;63801;49.414;19.474;2023-03-26T03:03:45;92908.78;;;5.23;74.16
75219;BME280;63801;49.414;19.474;2023-03-26T03:05:50;92894.66;;;5.23;74.24
75219;BME280;63801;49.414;19.474;2023-03-26T03:07:51;92898.69;;;5.17;74.14
75219;BME280;63801;49.414;19.474;2023-03-26T03:09:57;92891.88;;;5.19;74.13
75219;BME280;63801;49.414;19.474;2023-03-26T03:12:01;92886.88;;;5.18;74.04
75219;BME280;63801;49.414;19.474;2023-03-26T03:14:01;92876.06;;;5.14;73.82
75219;BME280;63801;49.414;19.474;2023-03-26T03:16:02;92871.09;;;5.13;73.90
75219;BME280;63801;49.414;19.474;2023-03-26T03:18:03;92885.53;;;5.12;74.20
75219;BME280;63801;49.414;19.474;2023-03-26T03:20:03;92883.97;;;5.11;74.04
75219;BME280;63801;49.414;19.474;2023-03-26T03:22:06;92886.88;;;5.06;73.97
75219;BME280;63801;49.414;19.474;2023-03-26T03:24:07;92879.44;;;4.99;74.06
75219;BME280;63801;49.414;19.474;2023-03-26T03:26:12;92878.88;;;4.93;74.13
75219;BME280;63801;49.414;19.474;2023-03-26T03:28:13;92880.19;;;4.87;74.31
75219;BME280;63801;49.414;19.474;2023-03-26T03:30:14;92877.75;;;4.82;74.40
75219;BME280;63801;49.414;19.474;2023-03-26T03:32:14;92874.53;;;4.77;74.19
75219;BME280;63801;49.414;19.474;2023-03-26T03:34:15;92876.75;;;4.75;74.42
75219;BME280;63801;49.414;19.474;2023-03-26T03:36:17;92879.97;;;4.68;74.57
75219;BME280;63801;49.414;19.474;2023-03-26T03:38:18;92886.63;;;4.62;75.11
75219;BME280;63801;49.414;19.474;2023-03-26T03:40:18;92894.66;;;4.62;74.95
75219;BME280;63801;49.414;19.474;2023-03-26T03:42:19;92887.09;;;4.64;74.96
75219;BME280;63801;49.414;19.474;2023-03-26T03:44:19;92864.81;;;4.48;75.06
75219;BME280;63801;49.414;19.474;2023-03-26T03:46:19;92880.75;;;4.69;74.77
75219;BME280;63801;49.414;19.474;2023-03-26T03:48:20;92876.63;;;4.71;75.12
75219;BME280;63801;49.414;19.474;2023-03-26T03:50:20;92873.41;;;4.66;75.19
75219;BME280;63801;49.414;19.474;2023-03-26T03:52:20;92870.50;;;4.71;75.31
75219;BME280;63801;49.414;19.474;2023-03-26T03:54:21;92883.53;;;4.72;75.12
75219;BME280;63801;49.414;19.474;2023-03-26T03:56:21;92886.31;;;4.76;75.12
75219;BME280;63801;49.414;19.474;2023-03-26T03:58:24;92881.44;;;4.78;75.13
75219;BME280;63801;49.414;19.474;2023-03-26T04:00:27;92899.78;;;4.79;75.37
75219;BME280;63801;49.414;19.474;2023-03-26T04:02:27;92882.31;;;4.82;75.00
75219;BME280;63801;49.414;19.474;2023-03-26T04:04:33;92879.19;;;4.80;75.04
75219;BME280;63801;49.414;19.474;2023-03-26T04:06:33;92882.66;;;4.80;75.26
75219;BME280;63801;49.414;19.474;2023-03-26T04:08:34;92883.44;;;4.81;75.04
75219;BME280;63801;49.414;19.474;2023-03-26T04:10:34;92879.19;;;4.80;74.94
75219;BME280;63801;49.414;19.474;2023-03-26T04:12:35;92876.84;;;4.78;75.15
75219;BME280;63801;49.414;19.474;2023-03-26T04:14:35;92879.19;;;4.80;75.02
75219;BME280;63801;49.414;19.474;2023-03-26T04:16:35;92879.19;;;4.80;74.91
75219;BME280;63801;49.414;19.474;2023-03-26T04:18:36;92879.66;;;4.82;75.17
75219;BME280;63801;49.414;19.474;2023-03-26T04:20:37;92883.88;;;4.83;74.90
75219;BME280;63801;49.414;19.474;2023-03-26T04:22:43;92884.84;;;4.78;75.05
75219;BME280;63801;49.414;19.474;2023-03-26T04:24:44;92864.38;;;4.70;75.27
75219;BME280;63801;49.414;19.474;2023-03-26T04:26:44;92882.66;;;4.80;75.25
75219;BME280;63801;49.414;19.474;2023-03-26T04:28:51;92881.53;;;4.81;75.19
75219;BME280;63801;49.414;19.474;2023-03-26T04:30:54;92873.97;;;4.83;75.24
75219;BME280;63801;49.414;19.474;2023-03-26T04:32:56;92869.09;;;4.85;75.00
75219;BME280;63801;49.414;19.474;2023-03-26T04:34:57;92871.75;;;4.85;75.09
75219;BME280;63801;49.414;19.474;2023-03-26T04:37:03;92865.84;;;4.80;75.31
75219;BME280;63801;49.414;19.474;2023-03-26T04:39:04;92865.63;;;4.85;75.43
75219;BME280;63801;49.414;19.474;2023-03-26T04:41:05;92868.63;;;4.83;75.30
75219;BME280;63801;49.414;19.474;2023-03-26T04:43:13;92866.72;;;4.84;75.58
75219;BME280;63801;49.414;19.474;2023-03-26T04:45:17;92858.06;;;4.87;75.67
75219;BME280;63801;49.414;19.474;2023-03-26T04:47:21;92873.75;;;4.88;75.43
75219;BME280;63801;49.414;19.474;2023-03-26T04:49:22;92864.16;;;4.87;75.55
75219;BME280;63801;49.414;19.474;2023-03-26T04:51:25;92867.50;;;4.84;75.59
75219;BME280;63801;49.414;19.474;2023-03-26T04:53:26;92839.47;;;4.66;75.39
75219;BME280;63801;49.414;19.474;2023-03-26T04:55:32;92865.94;;;4.83;75.19
75219;BME280;63801;49.414;19.474;2023-03-26T04:57:38;92871.75;;;4.85;75.23
75219;BME280;63801;49.414;19.474;2023-03-26T04:59:42;92858.28;;;4.82;75.41
75219;BME280;63801;49.414;19.474;2023-03-26T05:01:43;92863.28;;;4.83;75.25
75219;BME280;63801;49.414;19.474;2023-03-26T05:03:44;92873.53;;;4.81;75.31
75219;BME280;63801;49.414;19.474;2023-03-26T05:05:45;92868.19;;;4.81;75.09
75219;BME280;63801;49.414;19.474;2023-03-26T05:07:45;92868.84;;;4.78;75.34
75219;BME280;63801;49.414;19.474;2023-03-26T05:09:45;92867.63;;;4.76;75.35
75219;BME280;63801;49.414;19.474;2023-03-26T05:11:46;92873.06;;;4.79;75.56
75219;BME280;63801;49.414;19.474;2023-03-26T05:13:47;92870.50;;;4.83;75.70
75219;BME280;63801;49.414;19.474;2023-03-26T05:15:48;92879.53;;;4.90;75.59
75219;BME280;63801;49.414;19.474;2023-03-26T05:17:48;92876.75;;;4.99;75.68
75219;BME280;63801;49.414;19.474;2023-03-26T05:19:49;92878.88;;;5.18;75.85
75219;BME280;63801;49.414;19.474;2023-03-26T05:21:53;92878.28;;;5.24;75.32
75219;BME280;63801;49.414;19.474;2023-03-26T05:23:55;92887.50;;;5.27;74.83
75219;BME280;63801;49.414;19.474;2023-03-26T05:25:55;92878.75;;;5.26;74.91
75219;BME280;63801;49.414;19.474;2023-03-26T05:27:56;92889.44;;;5.26;74.97
75219;BME280;63801;49.414;19.474;2023-03-26T05:30:03;92879.50;;;5.27;74.69
75219;BME280;63801;49.414;19.474;2023-03-26T05:32:05;92890.66;;;5.29;74.81
75219;BME280;63801;49.414;19.474;2023-03-26T05:34:06;92893.09;;;5.34;74.73
75219;BME280;63801;49.414;19.474;2023-03-26T05:36:09;92880.41;;;5.31;74.80
75219;BME280;63801;49.414;19.474;2023-03-26T05:38:12;92877.75;;;5.31;74.64
75219;BME280;63801;49.414;19.474;2023-03-26T05:40:13;92868.16;;;5.30;74.80
75219;BME280;63801;49.414;19.474;2023-03-26T05:42:14;92883.09;;;5.31;74.91
75219;BME280;63801;49.414;19.474;2023-03-26T05:44:14;92868.59;;;5.32;74.49
75219;BME280;63801;49.414;19.474;2023-03-26T05:46:15;92878.50;;;5.31;74.46
75219;BME280;63801;49.414;19.474;2023-03-26T05:48:15;92872.72;;;5.29;74.43
75219;BME280;63801;49.414;19.474;2023-03-26T05:50:16;92874.38;;;5.34;74.54
75219;BME280;63801;49.414;19.474;2023-03-26T05:52:16;92866.78;;;5.36;74.43
75219;BME280;63801;49.414;19.474;2023-03-26T05:54:18;92854.44;;;5.31;74.45
75219;BME280;63801;49.414;19.474;2023-03-26T05:56:18;92860.72;;;5.63;75.88
75219;BME280;63801;49.414;19.474;2023-03-26T05:58:19;92867.38;;;6.53;74.97
75219;BME280;63801;49.414;19.474;2023-03-26T06:00:19;92869.25;;;6.99;73.02
75219;BME280;63801;49.414;19.474;2023-03-26T06:02:19;92871.84;;;7.27;71.78
75219;BME280;63801;49.414;19.474;2023-03-26T06:04:20;92861.63;;;7.33;70.90
75219;BME280;63801;49.414;19.474;2023-03-26T06:06:20;92860.44;;;7.30;71.20
75219;BME280;63801;49.414;19.474;2023-03-26T06:08:21;92864.75;;;7.19;70.77
75219;BME280;63801;49.414;19.474;2023-03-26T06:10:21;92864.00;;;7.03;71.13
75219;BME280;63801;49.414;19.474;2023-03-26T06:12:22;92843.63;;;6.83;70.71
75219;BME280;63801;49.414;19.474;2023-03-26T06:14:22;92874.38;;;6.89;71.04
75219;BME280;63801;49.414;19.474;2023-03-26T06:16:22;92874.19;;;6.82;71.02
75219;BME280;63801;49.414;19.474;2023-03-26T06:18:24;92883.97;;;6.74;71.25
75219;BME280;63801;49.414;19.474;2023-03-26T06:20:24;92873.88;;;6.67;70.77
75219;BME280;63801;49.414;19.474;2023-03-26T06:22:24;92890.44;;;6.57;70.67
75219;BME280;63801;49.414;19.474;2023-03-26T06:24:25;92891.81;;;6.51;71.08
75219;BME280;63801;49.414;19.474;2023-03-26T06:26:25;92893.19;;;6.45;70.75
75219;BME280;63801;49.414;19.474;2023-03-26T06:28:26;92899.13;;;6.39;71.31
75219;BME280;63801;49.414;19.474;2023-03-26T06:30:26;92886.00;;;6.33;71.27
75219;BME280;63801;49.414;19.474;2023-03-26T06:32:26;92892.13;;;6.34;71.19
75219;BME280;63801;49.414;19.474;2023-03-26T06:34:26;92890.69;;;6.37;71.54
75219;BME280;63801;49.414;19.474;2023-03-26T06:36:27;92898.56;;;6.45;71.61
75219;BME280;63801;49.414;19.474;2023-03-26T06:38:27;92892.59;;;6.52;71.33
75219;BME280;63801;49.414;19.474;2023-03-26T06:40:28;92888.97;;;6.60;71.39
75219;BME280;63801;49.414;19.474;2023-03-26T06:42:28;92887.84;;;6.61;71.13
75219;BME280;63801;49.414;19.474;2023-03-26T06:44:28;92881.97;;;6.55;70.99
75219;BME280;63801;49.414;19.474;2023-03-26T06:46:29;92882.75;;;6.56;70.80
75219;BME280;63801;49.414;19.474;2023-03-26T06:48:30;92884.75;;;6.74;72.04
75219;BME280;63801;49.414;19.474;2023-03-26T06:50:30;92874.28;;;7.01;71.18
75219;BME280;63801;49.414;19.474;2023-03-26T06:52:32;92873.47;;;7.32;71.32
75219;BME280;63801;49.414;19.474;2023-03-26T06:54:32;92882.28;;;7.67;71.48
75219;BME280;63801;49.414;19.474;2023-03-26T06:56:32;92881.69;;;7.93;69.86
75219;BME280;63801;49.414;19.474;2023-03-26T06:58:33;92880.41;;;8.06;69.88
75219;BME280;63801;49.414;19.474;2023-03-26T07:00:34;92886.56;;;8.26;69.61
75219;BME280;63801;49.414;19.474;2023-03-26T07:02:34;92883.09;;;8.25;67.65
75219;BME280;63801;49.414;19.474;2023-03-26T07:04:35;92882.53;;;8.16;67.77
75219;BME280;63801;49.414;19.474;2023-03-26T07:06:35;92884.16;;;8.21;68.50
75219;BME280;63801;49.414;19.474;2023-03-26T07:08:36;92878.66;;;8.33;68.77
75219;BME280;63801;49.414;19.474;2023-03-26T07:10:36;92883.53;;;8.27;67.11
75219;BME280;63801;49.414;19.474;2023-03-26T07:12:36;92887.34;;;8.26;66.08
75219;BME280;63801;49.414;19.474;2023-03-26T07:14:37;92886.72;;;8.33;67.29
75219;BME280;63801;49.414;19.474;2023-03-26T07:16:37;92881.41;;;8.78;68.21
75219;BME280;63801;49.414;19.474;2023-03-26T07:18:38;92887.66;;;9.84;68.04
75219;BME280;63801;49.414;19.474;2023-03-26T07:20:38;92874.41;;;10.65;64.27
75219;BME280;63801;49.414;19.474;2023-03-26T07:22:39;92856.41;;;10.76;61.13
75219;BME280;63801;49.414;19.474;2023-03-26T07:24:40;92860.09;;;10.57;61.68
75219;BME280;63801;49.414;19.474;2023-03-26T07:26:55;92864.88;;;10.38;61.49
75219;BME280;63801;49.414;19.474;2023-03-26T07:29:19;92850.53;;;10.00;61.12
75219;BME280;63801;49.414;19.474;2023-03-26T07:31:33;92853.38;;;9.51;60.59
75219;BME280;63801;49.414;19.474;2023-03-26T07:35:45;92856.16;;;8.83;61.84
75219;BME280;63801;49.414;19.474;2023-03-26T07:40:26;92851.84;;;8.55;62.24
75219;BME280;63801;49.414;19.474;2023-03-26T07:45:06;92867.66;;;8.19;62.70
75219;BME280;63801;49.414;19.474;2023-03-26T07:47:22;92856.97;;;8.03;63.22
75219;BME280;63801;49.414;19.474;2023-03-26T07:49:25;92863.75;;;7.97;63.64
75219;BME280;63801;49.414;19.474;2023-03-26T07:51:26;92850.97;;;7.90;63.71
75219;BME280;63801;49.414;19.474;2023-03-26T07:53:27;92847.78;;;7.85;63.70
75219;BME280;63801;49.414;19.474;2023-03-26T07:55:28;92852.31;;;7.81;64.09
75219;BME280;63801;49.414;19.474;2023-03-26T08:00:15;92847.47;;;8.47;63.69
75219;BME280;63801;49.414;19.474;2023-03-26T08:04:56;92863.34;;;8.75;62.59
75219;BME280;63801;49.414;19.474;2023-03-26T08:07:14;92862.66;;;8.82;62.26
75219;BME280;63801;49.414;19.474;2023-03-26T08:09:46;92867.63;;;8.80;62.22
75219;BME280;63801;49.414;19.474;2023-03-26T08:12:20;92862.94;;;8.77;62.14
75219;BME280;63801;49.414;19.474;2023-03-26T08:16:52;92863.06;;;8.61;62.20
75219;BME280;63801;49.414;19.474;2023-03-26T08:19:10;92870.16;;;8.50;62.32
75219;BME280;63801;49.414;19.474;2023-03-26T08:21:19;92858.94;;;8.25;62.41
75219;BME280;63801;49.414;19.474;2023-03-26T08:23:31;92854.84;;;8.12;62.88
75219;BME280;63801;49.414;19.474;2023-03-26T08:25:34;92859.94;;;7.98;63.25
75219;BME280;63801;49.414;19.474;2023-03-26T08:32:03;92856.59;;;7.66;64.36
75219;BME280;63801;49.414;19.474;2023-03-26T08:34:05;92865.28;;;7.59;64.42
75219;BME280;63801;49.414;19.474;2023-03-26T08:36:07;92860.97;;;7.55;64.42
75219;BME280;63801;49.414;19.474;2023-03-26T08:38:08;92844.44;;;7.53;64.63
75219;BME280;63801;49.414;19.474;2023-03-26T08:40:10;92867.44;;;7.54;64.72
75219;BME280;63801;49.414;19.474;2023-03-26T08:49:46;92857.47;;;8.08;64.56
75219;BME280;63801;49.414;19.474;2023-03-26T08:54:34;92862.00;;;8.66;62.72
75219;BME280;63801;49.414;19.474;2023-03-26T08:59:37;92854.53;;;8.78;61.44
75219;BME280;63801;49.414;19.474;2023-03-26T09:04:28;92857.75;;;9.10;61.39
75219;BME280;63801;49.414;19.474;2023-03-26T09:25:24;92848.72;;;8.31;60.60
75219;BME280;63801;49.414;19.474;2023-03-26T09:30:22;92824.31;;;8.20;61.05
75219;BME280;63801;49.414;19.474;2023-03-26T09:32:53;92832.88;;;8.26;61.29
75219;BME280;63801;49.414;19.474;2023-03-26T09:37:36;92826.94;;;8.36;60.79
75219;BME280;63801;49.414;19.474;2023-03-26T09:39:52;92834.84;;;8.48;60.83
75219;BME280;63801;49.414;19.474;2023-03-26T09:46:49;92830.94;;;8.91;60.30
75219;BME280;63801;49.414;19.474;2023-03-26T10:00:47;92824.41;;;9.71;58.03
75219;BME280;63801;49.414;19.474;2023-03-26T10:05:22;92830.34;;;9.54;57.46
75219;BME280;63801;49.414;19.474;2023-03-26T10:07:37;92823.69;;;9.44;57.69
75219;BME280;63801;49.414;19.474;2023-03-26T10:09:44;92814.81;;;9.43;57.85
75219;BME280;63801;49.414;19.474;2023-03-26T10:18:55;92815.56;;;9.40;58.11
75219;BME280;63801;49.414;19.474;2023-03-26T10:21:06;92839.41;;;9.42;58.37
75219;BME280;63801;49.414;19.474;2023-03-26T10:30:02;92816.44;;;8.95;59.26
75219;BME280;63801;49.414;19.474;2023-03-26T10:32:29;92823.53;;;9.07;59.27
75219;BME280;63801;49.414;19.474;2023-03-26T10:41:48;92785.16;;;9.36;56.53
75219;BME280;63801;49.414;19.474;2023-03-26T10:46:58;92799.34;;;9.07;57.98
75219;BME280;63801;49.414;19.474;2023-03-26T10:51:46;92785.16;;;8.84;59.57
75219;BME280;63801;49.414;19.474;2023-03-26T10:53:59;92788.25;;;8.86;59.52
75219;BME280;63801;49.414;19.474;2023-03-26T10:56:16;92799.81;;;8.90;59.28
75219;BME280;63801;49.414;19.474;2023-03-26T10:58:27;92784.44;;;8.87;59.59
75219;BME280;63801;49.414;19.474;2023-03-26T11:00:36;92812.28;;;8.75;58.93
75219;BME280;63801;49.414;19.474;2023-03-26T11:02:46;92803.44;;;8.52;58.79
75219;BME280;63801;49.414;19.474;2023-03-26T11:07:20;92800.31;;;8.50;60.13
75219;BME280;63801;49.414;19.474;2023-03-26T11:09:39;92788.09;;;8.52;60.78
75219;BME280;63801;49.414;19.474;2023-03-26T11:14:25;92784.56;;;8.71;61.63
75219;BME280;63801;49.414;19.474;2023-03-26T11:16:30;92777.09;;;8.84;61.55
75219;BME280;63801;49.414;19.474;2023-03-26T11:21:03;92768.09;;;8.99;60.24
75219;BME280;63801;49.414;19.474;2023-03-26T11:32:53;92755.38;;;8.70;60.15
75219;BME280;63801;49.414;19.474;2023-03-26T11:37:05;92760.50;;;8.78;60.36
75219;BME280;63801;49.414;19.474;2023-03-26T11:39:11;92760.50;;;8.78;60.58
75219;BME280;63801;49.414;19.474;2023-03-26T11:41:20;92774.88;;;8.89;60.52
75219;BME280;63801;49.414;19.474;2023-03-26T11:43:26;92762.00;;;9.02;60.07
75219;BME280;63801;49.414;19.474;2023-03-26T11:45:35;92759.50;;;9.16;59.80
75219;BME280;63801;49.414;19.474;2023-03-26T11:47:41;92750.81;;;9.26;58.75
75219;BME280;63801;49.414;19.474;2023-03-26T11:49:45;92753.28;;;9.38;57.75
75219;BME280;63801;49.414;19.474;2023-03-26T11:51:46;92756.06;;;9.45;56.27
75219;BME280;63801;49.414;19.474;2023-03-26T11:53:48;92743.44;;;9.50;56.13
75219;BME280;63801;49.414;19.474;2023-03-26T11:55:59;92745.44;;;9.56;55.90
75219;BME280;63801;49.414;19.474;2023-03-26T11:58:02;92758.13;;;9.56;56.45
75219;BME280;63801;49.414;19.474;2023-03-26T12:00:15;92750.59;;;9.68;56.49
75219;BME280;63801;49.414;19.474;2023-03-26T12:02:36;92744.59;;;9.82;56.11
75219;BME280;63801;49.414;19.474;2023-03-26T12:06:51;92741.81;;;10.08;54.89
75219;BME280;63801;49.414;19.474;2023-03-26T12:08:52;92737.72;;;10.21;54.95
75219;BME280;63801;49.414;19.474;2023-03-26T12:11:02;92729.44;;;10.41;54.89
75219;BME280;63801;49.414;19.474;2023-03-26T12:13:33;92726.25;;;10.75;55.34
75219;BME280;63801;49.414;19.474;2023-03-26T12:15:41;92724.19;;;11.09;54.43
75219;BME280;63801;49.414;19.474;2023-03-26T12:17:42;92709.69;;;11.35;53.70
75219;BME280;63801;49.414;19.474;2023-03-26T12:19:44;92702.44;;;11.50;53.01
75219;BME280;63801;49.414;19.474;2023-03-26T12:21:49;92704.44;;;11.67;52.70
75219;BME280;63801;49.414;19.474;2023-03-26T12:26:15;92680.44;;;11.44;51.02
75219;BME280;63801;49.414;19.474;2023-03-26T12:28:18;92706.63;;;11.44;50.83
75219;BME280;63801;49.414;19.474;2023-03-26T12:32:31;92696.97;;;11.36;51.29
75219;BME280;63801;49.414;19.474;2023-03-26T12:34:34;92674.22;;;11.37;50.91
75219;BME280;63801;49.414;19.474;2023-03-26T12:36:36;92704.28;;;11.35;50.88
75219;BME280;63801;49.414;19.474;2023-03-26T12:38:38;92691.50;;;11.28;50.90
75219;BME280;63801;49.414;19.474;2023-03-26T12:40:39;92700.03;;;11.31;50.26
75219;BME280;63801;49.414;19.474;2023-03-26T12:42:50;92676.09;;;11.25;50.23
75219;BME280;63801;49.414;19.474;2023-03-26T12:44:52;92675.72;;;11.23;49.69
75219;BME280;63801;49.414;19.474;2023-03-26T12:49:20;92666.50;;;11.32;50.59
75219;BME280;63801;49.414;19.474;2023-03-26T12:56:00;92657.19;;;11.18;49.96
75219;BME280;63801;49.414;19.474;2023-03-26T12:58:30;92676.41;;;11.06;50.40
75219;BME280;63801;49.414;19.474;2023-03-26T13:02:55;92672.81;;;10.88;52.13
75219;BME280;63801;49.414;19.474;2023-03-26T13:15:05;92664.94;;;11.27;49.97
75219;BME280;63801;49.414;19.474;2023-03-26T13:19:50;92652.50;;;11.08;49.54
75219;BME280;63801;49.414;19.474;2023-03-26T13:24:45;92646.53;;;10.74;50.35
75219;BME280;63801;49.414;19.474;2023-03-26T13:29:24;92623.75;;;10.61;50.56
75219;BME280;63801;49.414;19.474;2023-03-26T13:33:41;92642.75;;;10.86;50.63
75219;BME280;63801;49.414;19.474;2023-03-26T13:46:50;92625.00;;;10.78;51.54
75219;BME280;63801;49.414;19.474;2023-03-26T13:51:26;92647.22;;;10.61;52.04
75219;BME280;63801;49.414;19.474;2023-03-26T13:53:46;92629.75;;;10.41;51.93
75219;BME280;63801;49.414;19.474;2023-03-26T13:55:56;92631.97;;;10.31;52.49
75219;BME280;63801;49.414;19.474;2023-03-26T13:58:09;92633.84;;;10.20;52.79
75219;BME280;63801;49.414;19.474;2023-03-26T14:00:15;92639.19;;;10.17;52.86
75219;BME280;63801;49.414;19.474;2023-03-26T14:02:26;92627.19;;;10.14;53.21
75219;BME280;63801;49.414;19.474;2023-03-26T14:04:32;92631.13;;;10.20;53.39